createdAt,value
2022-10-30T00:00:44.974Z,58.01
2022-10-30T00:01:45.024Z,56.86
2022-10-30T00:02:44.974Z,58.17
2022-10-30T00:03:44.935Z,57.20
2022-10-30T00:04:44.951Z,57.24
2022-10-30T00:05:44.920Z,57.40
2022-10-30T00:06:44.908Z,56.13
2022-10-30T00:07:44.906Z,56.44
2022-10-30T00:08:44.914Z,58.92
2022-10-30T00:09:44.898Z,58.58
2022-10-30T00:10:44.878Z,58.69
2022-10-30T00:11:44.861Z,57.14
2022-10-30T00:12:44.899Z,55.84
2022-10-30T00:13:44.915Z,58.99
2022-10-30T00:14:44.822Z,57.36
2022-10-30T00:15:44.815Z,56.47
2022-10-30T00:16:44.802Z,58.92
2022-10-30T00:17:44.798Z,59.15
2022-10-30T00:18:44.803Z,58.47
2022-10-30T00:19:44.777Z,54.84
2022-10-30T00:20:44.766Z,55.62
2022-10-30T00:21:44.905Z,59.06
2022-10-30T00:22:44.740Z,57.11
2022-10-30T00:23:44.755Z,55.85
2022-10-30T00:24:44.711Z,58.76
2022-10-30T00:25:44.717Z,57.93
2022-10-30T00:26:44.705Z,60.73
2022-10-30T00:27:44.701Z,57.03
2022-10-30T00:28:44.693Z,59.20
2022-10-30T00:29:44.671Z,54.54
2022-10-30T00:30:44.671Z,55.84
2022-10-30T00:31:44.651Z,56.07
2022-10-30T00:32:44.648Z,55.61
2022-10-30T00:33:44.655Z,55.70
2022-10-30T00:34:44.621Z,56.06
2022-10-30T00:35:44.634Z,56.77
2022-10-30T00:36:44.602Z,55.08
2022-10-30T00:37:44.597Z,58.16
2022-10-30T00:38:44.600Z,57.81
2022-10-30T00:39:44.568Z,58.11
2022-10-30T00:40:44.552Z,54.54
2022-10-30T00:41:44.553Z,57.16
2022-10-30T00:42:44.537Z,57.02
2022-10-30T00:43:44.534Z,57.50
2022-10-30T00:44:44.542Z,57.53
2022-10-30T00:45:44.518Z,54.55
2022-10-30T00:46:44.506Z,54.33
2022-10-30T00:47:44.492Z,56.09
2022-10-30T00:48:44.499Z,56.72
2022-10-30T00:49:44.474Z,54.14
2022-10-30T00:50:44.469Z,55.92
2022-10-30T00:51:44.450Z,55.90
2022-10-30T00:52:44.444Z,55.77
2022-10-30T00:53:44.436Z,57.26
2022-10-30T00:54:44.446Z,56.70
2022-10-30T00:55:44.414Z,55.98
2022-10-30T00:56:44.402Z,56.24
2022-10-30T00:57:44.392Z,57.63
2022-10-30T00:58:44.386Z,58.41
2022-10-30T00:59:44.397Z,54.66
2022-10-30T01:00:44.365Z,54.67
2022-10-30T01:01:44.467Z,56.60
2022-10-30T01:02:44.394Z,56.21
2022-10-30T01:03:44.335Z,55.93
2022-10-30T01:04:44.352Z,58.05
2022-10-30T01:05:44.330Z,54.77
2022-10-30T01:06:44.322Z,57.48
2022-10-30T01:07:44.429Z,55.11
2022-10-30T01:08:44.361Z,54.21
2022-10-30T01:09:44.340Z,55.91
2022-10-30T01:10:44.275Z,56.84
2022-10-30T01:11:44.275Z,55.08
2022-10-30T01:12:44.257Z,52.73
2022-10-30T01:13:44.243Z,53.93
2022-10-30T01:14:44.255Z,55.31
2022-10-30T01:15:44.225Z,54.15
2022-10-30T01:16:44.202Z,55.98
2022-10-30T01:17:44.196Z,53.53
2022-10-30T01:18:44.211Z,53.33
2022-10-30T01:19:44.203Z,55.12
2022-10-30T01:20:44.159Z,54.44
2022-10-30T01:21:44.152Z,53.91
2022-10-30T01:22:44.148Z,55.45
2022-10-30T01:23:44.149Z,54.87
2022-10-30T01:24:44.151Z,54.82
2022-10-30T01:25:44.121Z,56.54
2022-10-30T01:26:44.111Z,55.44
2022-10-30T01:27:44.097Z,55.40
2022-10-30T01:28:44.083Z,56.23
2022-10-30T01:29:44.098Z,53.26
2022-10-30T01:30:44.088Z,52.51
2022-10-30T01:31:44.098Z,55.66
2022-10-30T01:32:44.035Z,55.10
2022-10-30T01:33:44.037Z,54.85
2022-10-30T01:34:44.085Z,55.74
2022-10-30T01:35:44.019Z,54.88
2022-10-30T01:36:43.997Z,52.86
2022-10-30T01:37:43.999Z,57.04
2022-10-30T01:38:44.005Z,55.78
2022-10-30T01:39:44.010Z,56.69
2022-10-30T01:40:43.972Z,54.89
2022-10-30T01:41:43.959Z,52.17
2022-10-30T01:42:43.951Z,53.12
2022-10-30T01:43:44.940Z,57.04
2022-10-30T01:44:43.935Z,51.36
2022-10-30T01:45:43.931Z,53.24
2022-10-30T01:46:43.913Z,55.89
2022-10-30T01:47:43.902Z,55.30
2022-10-30T01:48:43.882Z,54.25
2022-10-30T01:49:43.895Z,55.84
2022-10-30T01:50:43.867Z,57.11
2022-10-30T01:51:43.854Z,53.10
2022-10-30T01:52:43.831Z,53.73
2022-10-30T01:53:43.837Z,54.81
2022-10-30T01:54:43.848Z,55.80
2022-10-30T01:55:43.821Z,55.04
2022-10-30T01:56:43.858Z,54.09
2022-10-30T01:57:43.798Z,55.84
2022-10-30T01:58:43.786Z,56.29
2022-10-30T01:59:43.791Z,54.56
2022-10-30T02:00:43.774Z,55.00
2022-10-30T02:01:43.854Z,53.87
2022-10-30T02:02:43.851Z,53.45
2022-10-30T02:03:43.756Z,54.38
2022-10-30T02:04:43.749Z,54.21
2022-10-30T02:05:43.721Z,56.14
2022-10-30T02:06:43.705Z,55.90
2022-10-30T02:07:44.704Z,57.75
2022-10-30T02:08:43.683Z,54.02
2022-10-30T02:09:43.700Z,53.87
2022-10-30T02:10:43.675Z,55.96
2022-10-30T02:11:43.663Z,53.03
2022-10-30T02:12:43.651Z,53.71
2022-10-30T02:13:43.645Z,52.96
2022-10-30T02:14:43.651Z,52.94
2022-10-30T02:15:43.628Z,53.31
2022-10-30T02:16:43.603Z,51.18
2022-10-30T02:17:43.632Z,55.05
2022-10-30T02:18:46.602Z,55.14
2022-10-30T02:19:43.604Z,52.35
2022-10-30T02:20:43.570Z,52.55
2022-10-30T02:21:43.574Z,54.21
2022-10-30T02:22:43.605Z,54.19
2022-10-30T02:23:43.548Z,54.52
2022-10-30T02:24:43.538Z,57.86
2022-10-30T02:25:43.522Z,56.60
2022-10-30T02:26:44.524Z,56.52
2022-10-30T02:27:43.510Z,55.28
2022-10-30T02:28:43.503Z,57.88
2022-10-30T02:29:43.522Z,58.01
2022-10-30T02:30:43.474Z,54.20
2022-10-30T02:31:43.468Z,57.10
2022-10-30T02:32:43.472Z,56.91
2022-10-30T02:33:43.470Z,55.20
2022-10-30T02:34:43.470Z,57.90
2022-10-30T02:35:43.439Z,55.36
2022-10-30T02:36:43.425Z,53.48
2022-10-30T02:37:43.420Z,51.26
2022-10-30T02:38:43.422Z,54.62
2022-10-30T02:39:43.417Z,54.45
2022-10-30T02:40:43.398Z,53.76
2022-10-30T02:41:43.383Z,54.98
2022-10-30T02:42:43.374Z,55.30
2022-10-30T02:43:43.363Z,54.46
2022-10-30T02:44:43.368Z,54.81
2022-10-30T02:45:43.348Z,53.28
2022-10-30T02:46:43.328Z,55.54
2022-10-30T02:47:43.324Z,56.96
2022-10-30T02:48:43.317Z,55.35
2022-10-30T02:49:43.323Z,53.44
2022-10-30T02:50:43.287Z,54.52
2022-10-30T02:51:43.289Z,53.40
2022-10-30T02:52:43.278Z,53.53
2022-10-30T02:53:43.263Z,55.17
2022-10-30T02:54:43.266Z,56.17
2022-10-30T02:55:43.268Z,54.81
2022-10-30T02:56:43.252Z,56.71
2022-10-30T02:57:43.234Z,60.14
2022-10-30T02:58:43.289Z,56.08
2022-10-30T02:59:43.271Z,55.81
2022-10-30T03:00:43.194Z,57.96
2022-10-30T03:01:43.276Z,55.26
2022-10-30T03:02:43.221Z,54.37
2022-10-30T03:03:43.168Z,55.10
2022-10-30T03:04:43.176Z,55.48
2022-10-30T03:05:43.147Z,50.72
2022-10-30T03:06:43.146Z,56.87
2022-10-30T03:07:43.131Z,58.83
2022-10-30T03:08:43.113Z,60.30
2022-10-30T03:09:43.121Z,58.79
2022-10-30T03:10:43.084Z,56.48
2022-10-30T03:11:43.086Z,56.08
2022-10-30T03:12:43.081Z,56.66
2022-10-30T03:13:43.066Z,53.79
2022-10-30T03:14:43.064Z,56.17
2022-10-30T03:15:43.052Z,55.89
2022-10-30T03:16:43.040Z,56.50
2022-10-30T03:17:43.081Z,55.50
2022-10-30T03:18:43.038Z,53.91
2022-10-30T03:19:43.040Z,56.94
2022-10-30T03:20:43.000Z,58.93
2022-10-30T03:21:42.989Z,56.33
2022-10-30T03:22:42.982Z,54.13
2022-10-30T03:23:43.079Z,53.97
2022-10-30T03:24:42.981Z,56.22
2022-10-30T03:25:42.955Z,57.02
2022-10-30T03:26:42.937Z,53.64
2022-10-30T03:27:42.929Z,51.44
2022-10-30T03:28:42.915Z,55.60
2022-10-30T03:29:42.935Z,58.82
2022-10-30T03:30:42.893Z,58.19
2022-10-30T03:31:42.888Z,55.37
2022-10-30T03:32:42.885Z,55.95
2022-10-30T03:33:42.862Z,56.51
2022-10-30T03:34:42.866Z,53.63
2022-10-30T03:35:42.853Z,53.43
2022-10-30T03:36:42.841Z,56.62
2022-10-30T03:37:42.833Z,55.75
2022-10-30T03:38:42.819Z,56.34
2022-10-30T03:39:42.835Z,52.20
2022-10-30T03:40:42.802Z,54.36
2022-10-30T03:41:42.786Z,55.45
2022-10-30T03:42:42.771Z,53.97
2022-10-30T03:43:42.859Z,55.32
2022-10-30T03:44:42.777Z,55.64
2022-10-30T03:45:42.750Z,54.21
2022-10-30T03:46:42.730Z,52.75
2022-10-30T03:47:42.725Z,53.87
2022-10-30T03:48:42.721Z,51.60
2022-10-30T03:49:42.729Z,54.58
2022-10-30T03:50:42.693Z,56.25
2022-10-30T03:51:42.694Z,54.83
2022-10-30T03:52:42.677Z,53.18
2022-10-30T03:53:42.666Z,53.86
2022-10-30T03:54:42.672Z,52.83
2022-10-30T03:55:42.657Z,55.92
2022-10-30T03:56:42.649Z,52.61
2022-10-30T03:57:42.630Z,55.00
2022-10-30T03:58:42.632Z,54.27
2022-10-30T03:59:42.616Z,54.30
2022-10-30T04:00:42.607Z,56.15
2022-10-30T04:01:42.749Z,59.91
2022-10-30T04:02:42.585Z,55.65
2022-10-30T04:03:42.575Z,54.07
2022-10-30T04:04:42.583Z,54.09
2022-10-30T04:05:42.577Z,54.95
2022-10-30T04:06:42.540Z,54.73
2022-10-30T04:07:42.531Z,55.80
2022-10-30T04:08:42.540Z,56.12
2022-10-30T04:09:42.531Z,56.50
2022-10-30T04:10:43.438Z,54.70
2022-10-30T04:11:42.497Z,54.18
2022-10-30T04:12:42.510Z,57.18
2022-10-30T04:13:42.484Z,55.38
2022-10-30T04:14:42.454Z,56.75
2022-10-30T04:15:42.468Z,55.35
2022-10-30T04:16:42.450Z,55.33
2022-10-30T04:17:42.439Z,56.53
2022-10-30T04:18:42.434Z,55.11
2022-10-30T04:19:42.409Z,59.71
2022-10-30T04:20:42.422Z,56.98
2022-10-30T04:21:42.393Z,52.94
2022-10-30T04:22:42.380Z,52.96
2022-10-30T04:23:42.373Z,56.30
2022-10-30T04:24:42.360Z,58.02
2022-10-30T04:25:42.366Z,55.26
2022-10-30T04:26:42.330Z,55.58
2022-10-30T04:27:42.332Z,53.58
2022-10-30T04:28:42.345Z,55.60
2022-10-30T04:29:42.306Z,57.56
2022-10-30T04:30:42.332Z,56.69
2022-10-30T04:31:42.298Z,54.44
2022-10-30T04:32:42.287Z,56.98
2022-10-30T04:33:42.270Z,56.25
2022-10-30T04:34:42.262Z,55.22
2022-10-30T04:35:42.266Z,57.08
2022-10-30T04:36:42.240Z,55.65
2022-10-30T04:37:42.234Z,55.94
2022-10-30T04:38:42.210Z,56.03
2022-10-30T04:39:45.483Z,57.33
2022-10-30T04:40:43.216Z,57.94
2022-10-30T04:41:42.197Z,57.94
2022-10-30T04:42:42.165Z,55.77
2022-10-30T04:43:42.171Z,56.63
2022-10-30T04:44:42.157Z,57.01
2022-10-30T04:45:42.163Z,53.75
2022-10-30T04:46:42.134Z,54.94
2022-10-30T04:47:42.134Z,55.63
2022-10-30T04:48:42.129Z,56.87
2022-10-30T04:49:42.116Z,55.05
2022-10-30T04:50:42.102Z,54.27
2022-10-30T04:51:42.096Z,54.51
2022-10-30T04:52:42.085Z,56.06
2022-10-30T04:53:42.079Z,56.53
2022-10-30T04:54:42.067Z,56.22
2022-10-30T04:55:42.083Z,57.97
2022-10-30T04:56:42.058Z,57.15
2022-10-30T04:57:42.035Z,56.86
2022-10-30T04:58:42.018Z,56.72
2022-10-30T04:59:42.020Z,57.23
2022-10-30T05:00:42.024Z,56.32
2022-10-30T05:01:42.114Z,58.83
2022-10-30T05:03:41.976Z,56.04
2022-10-30T05:04:41.967Z,56.06
2022-10-30T05:05:41.990Z,55.65
2022-10-30T05:06:41.950Z,57.90
2022-10-30T05:07:41.932Z,57.66
2022-10-30T05:08:41.926Z,58.42
2022-10-30T05:09:41.918Z,56.07
2022-10-30T05:10:41.925Z,55.66
2022-10-30T05:11:41.894Z,58.03
2022-10-30T05:12:41.886Z,57.62
2022-10-30T05:13:41.872Z,56.85
2022-10-30T05:14:41.856Z,57.54
2022-10-30T05:15:41.876Z,57.87
2022-10-30T05:16:41.845Z,57.30
2022-10-30T05:17:41.831Z,57.38
2022-10-30T05:18:41.820Z,58.14
2022-10-30T05:19:41.815Z,58.12
2022-10-30T05:20:41.816Z,57.03
2022-10-30T05:21:41.793Z,60.00
2022-10-30T05:22:41.773Z,58.14
2022-10-30T05:23:41.772Z,57.55
2022-10-30T05:24:41.769Z,59.60
2022-10-30T05:25:41.773Z,59.26
2022-10-30T05:26:41.734Z,60.51
2022-10-30T05:27:41.738Z,58.65
2022-10-30T05:28:41.721Z,59.10
2022-10-30T05:29:41.714Z,57.74
2022-10-30T05:30:41.713Z,59.96
2022-10-30T05:31:41.699Z,60.95
2022-10-30T05:32:41.685Z,58.81
2022-10-30T05:33:41.679Z,57.98
2022-10-30T05:34:41.660Z,57.42
2022-10-30T05:35:41.672Z,57.45
2022-10-30T05:36:41.641Z,56.42
2022-10-30T05:37:41.681Z,58.61
2022-10-30T05:38:41.609Z,57.35
2022-10-30T05:39:41.619Z,58.97
2022-10-30T05:40:41.628Z,57.45
2022-10-30T05:41:41.593Z,58.06
2022-10-30T05:42:41.590Z,56.08
2022-10-30T05:43:41.572Z,56.63
2022-10-30T05:44:59.673Z,56.78
2022-10-30T05:45:43.570Z,56.60
2022-10-30T05:46:41.638Z,56.31
2022-10-30T05:47:41.519Z,57.06
2022-10-30T05:48:42.523Z,58.18
2022-10-30T05:49:41.503Z,56.86
2022-10-30T05:50:41.520Z,59.26
2022-10-30T05:51:41.492Z,60.40
2022-10-30T05:52:41.479Z,58.60
2022-10-30T05:53:41.465Z,60.60
2022-10-30T05:54:41.477Z,59.50
2022-10-30T05:55:41.469Z,60.84
2022-10-30T05:56:41.438Z,58.14
2022-10-30T05:57:41.423Z,58.74
2022-10-30T05:58:41.421Z,58.42
2022-10-30T05:59:41.418Z,57.63
2022-10-30T06:00:41.405Z,57.96
2022-10-30T06:01:41.437Z,57.04
2022-10-30T06:02:41.406Z,58.27
2022-10-30T06:03:41.369Z,59.25
2022-10-30T06:04:41.357Z,59.53
2022-10-30T06:05:41.353Z,59.80
2022-10-30T06:07:13.239Z,59.65
2022-10-30T06:07:41.324Z,58.74
2022-10-30T06:08:41.304Z,57.14
2022-10-30T06:09:41.288Z,56.70
2022-10-30T06:10:42.314Z,59.61
2022-10-30T06:11:41.280Z,59.75
2022-10-30T06:12:41.271Z,59.81
2022-10-30T06:13:41.263Z,59.59
2022-10-30T06:14:41.255Z,59.04
2022-10-30T06:15:41.253Z,58.21
2022-10-30T06:16:41.216Z,57.74
2022-10-30T06:17:41.215Z,58.69
2022-10-30T06:18:41.211Z,58.62
2022-10-30T06:19:41.203Z,59.00
2022-10-30T06:20:41.213Z,59.83
2022-10-30T06:21:41.176Z,57.81
2022-10-30T06:22:41.165Z,60.52
2022-10-30T06:23:41.164Z,57.26
2022-10-30T06:24:41.156Z,57.90
2022-10-30T06:25:41.676Z,57.85
2022-10-30T06:26:42.135Z,58.09
2022-10-30T06:27:41.114Z,58.83
2022-10-30T06:28:41.112Z,58.03
2022-10-30T06:29:41.098Z,58.53
2022-10-30T06:30:41.162Z,58.78
2022-10-30T06:31:41.079Z,58.54
2022-10-30T06:32:41.068Z,58.82
2022-10-30T06:33:41.055Z,58.23
2022-10-30T06:34:41.051Z,56.89
2022-10-30T06:35:41.048Z,57.90
2022-10-30T06:36:41.048Z,57.03
2022-10-30T06:37:41.018Z,55.88
2022-10-30T06:38:41.015Z,58.64
2022-10-30T06:39:40.987Z,60.10
2022-10-30T06:40:41.998Z,58.94
2022-10-30T06:41:40.971Z,58.82
2022-10-30T06:42:40.960Z,59.47
2022-10-30T06:43:40.956Z,59.45
2022-10-30T06:44:40.950Z,60.18
2022-10-30T06:45:40.960Z,59.56
2022-10-30T06:46:40.925Z,59.29
2022-10-30T06:47:40.913Z,59.77
2022-10-30T06:48:40.903Z,59.23
2022-10-30T06:49:40.879Z,60.65
2022-10-30T06:50:40.903Z,61.39
2022-10-30T06:51:40.867Z,59.43
2022-10-30T06:52:40.861Z,59.49
2022-10-30T06:53:40.852Z,60.02
2022-10-30T06:54:40.847Z,59.09
2022-10-30T06:55:40.850Z,58.94
2022-10-30T06:56:40.811Z,59.86
2022-10-30T06:57:40.803Z,60.40
2022-10-30T06:58:40.799Z,59.38
2022-10-30T06:59:40.782Z,59.13
2022-10-30T07:00:40.880Z,59.71
2022-10-30T07:01:40.876Z,59.68
2022-10-30T07:02:40.759Z,58.63
2022-10-30T07:03:40.753Z,59.39
2022-10-30T07:04:40.741Z,59.83
2022-10-30T07:05:40.747Z,59.62
2022-10-30T07:06:40.718Z,59.27
2022-10-30T07:07:40.704Z,59.69
2022-10-30T07:08:40.715Z,59.54
2022-10-30T07:09:40.692Z,58.19
2022-10-30T07:10:40.700Z,59.66
2022-10-30T07:11:40.661Z,58.35
2022-10-30T07:12:40.657Z,58.99
2022-10-30T07:13:40.657Z,58.04
2022-10-30T07:14:40.646Z,60.83
2022-10-30T07:15:43.682Z,59.03
2022-10-30T07:16:40.634Z,60.58
2022-10-30T07:17:40.609Z,59.38
2022-10-30T07:18:40.599Z,59.79
2022-10-30T07:19:40.600Z,59.80
2022-10-30T07:20:40.606Z,57.81
2022-10-30T07:21:40.570Z,59.37
2022-10-30T07:22:40.563Z,58.63
2022-10-30T07:23:40.547Z,59.63
2022-10-30T07:24:40.547Z,59.04
2022-10-30T07:25:40.551Z,59.54
2022-10-30T07:26:40.521Z,59.50
2022-10-30T07:27:40.504Z,59.76
2022-10-30T07:28:40.512Z,59.38
2022-10-30T07:29:40.493Z,60.73
2022-10-30T07:30:40.504Z,60.13
2022-10-30T07:31:42.207Z,59.44
2022-10-30T07:32:40.475Z,60.98
2022-10-30T07:33:40.458Z,59.90
2022-10-30T07:34:40.453Z,60.15
2022-10-30T07:35:40.453Z,62.07
2022-10-30T07:36:40.432Z,58.32
2022-10-30T07:37:40.419Z,59.83
2022-10-30T07:38:40.414Z,60.14
2022-10-30T07:39:40.393Z,60.60
2022-10-30T07:40:40.408Z,61.64
2022-10-30T07:41:40.379Z,59.45
2022-10-30T07:42:40.375Z,61.53
2022-10-30T07:43:40.363Z,59.05
2022-10-30T07:44:40.355Z,59.39
2022-10-30T07:45:40.371Z,59.74
2022-10-30T07:46:40.339Z,60.13
2022-10-30T07:47:40.317Z,60.13
2022-10-30T07:48:40.307Z,59.37
2022-10-30T07:49:40.303Z,60.87
2022-10-30T07:50:40.434Z,61.05
2022-10-30T07:51:40.283Z,59.83
2022-10-30T07:52:40.256Z,59.80
2022-10-30T07:53:41.255Z,59.38
2022-10-30T07:54:40.272Z,61.18
2022-10-30T07:55:41.249Z,61.37
2022-10-30T07:56:40.227Z,60.80
2022-10-30T07:57:40.214Z,59.78
2022-10-30T07:58:45.269Z,60.35
2022-10-30T07:59:42.232Z,61.17
2022-10-30T08:00:40.205Z,57.53
2022-10-30T08:01:40.367Z,59.90
2022-10-30T08:02:40.384Z,61.12
2022-10-30T08:03:40.169Z,62.00
2022-10-30T08:04:40.158Z,62.09
2022-10-30T08:05:40.153Z,62.04
2022-10-30T08:06:40.139Z,59.47
2022-10-30T08:07:40.122Z,62.90
2022-10-30T08:08:43.181Z,61.43
2022-10-30T08:09:40.117Z,61.38
2022-10-30T08:10:40.107Z,60.92
2022-10-30T08:11:40.086Z,61.40
2022-10-30T08:12:40.070Z,61.97
2022-10-30T08:13:40.070Z,61.52
2022-10-30T08:14:40.057Z,60.76
2022-10-30T08:15:40.061Z,61.43
2022-10-30T08:16:40.046Z,61.25
2022-10-30T08:17:40.023Z,61.34
2022-10-30T08:18:41.023Z,61.23
2022-10-30T08:19:40.007Z,62.10
2022-10-30T08:20:40.041Z,60.39
2022-10-30T08:21:39.990Z,60.32
2022-10-30T08:22:39.974Z,62.08
2022-10-30T08:23:39.956Z,61.63
2022-10-30T08:24:39.959Z,60.92
2022-10-30T08:25:39.969Z,61.09
2022-10-30T08:26:39.945Z,61.39
2022-10-30T08:27:39.929Z,62.03
2022-10-30T08:28:39.930Z,60.47
2022-10-30T08:29:39.912Z,60.23
2022-10-30T08:30:39.905Z,61.72
2022-10-30T08:31:40.884Z,61.18
2022-10-30T08:32:39.882Z,60.88
2022-10-30T08:33:39.875Z,61.70
2022-10-30T08:34:39.863Z,60.87
2022-10-30T08:35:39.862Z,61.27
2022-10-30T08:36:41.758Z,60.10
2022-10-30T08:37:39.829Z,61.11
2022-10-30T08:38:39.824Z,61.74
2022-10-30T08:39:39.819Z,62.38
2022-10-30T08:40:39.821Z,60.86
2022-10-30T08:41:39.796Z,61.70
2022-10-30T08:42:39.780Z,61.47
2022-10-30T08:43:39.776Z,61.14
2022-10-30T08:44:39.765Z,60.90
2022-10-30T08:45:39.769Z,61.23
2022-10-30T08:46:39.743Z,61.68
2022-10-30T08:47:39.718Z,61.68
2022-10-30T08:48:39.720Z,61.43
2022-10-30T08:49:39.717Z,61.85
2022-10-30T08:50:39.722Z,62.93
2022-10-30T08:51:39.698Z,61.59
2022-10-30T08:52:39.683Z,62.07
2022-10-30T08:53:39.678Z,62.09
2022-10-30T08:54:39.667Z,60.75
2022-10-30T08:55:39.662Z,61.33
2022-10-30T08:56:39.641Z,60.11
2022-10-30T08:57:39.644Z,60.62
2022-10-30T08:58:39.631Z,59.10
2022-10-30T08:59:39.616Z,61.47
2022-10-30T09:00:39.635Z,61.55
2022-10-30T09:01:39.747Z,60.45
2022-10-30T09:02:39.787Z,60.72
2022-10-30T09:03:39.582Z,61.04
2022-10-30T09:04:39.570Z,61.17
2022-10-30T09:05:39.583Z,62.32
2022-10-30T09:06:39.560Z,61.88
2022-10-30T09:07:39.543Z,62.09
2022-10-30T09:08:39.533Z,62.33
2022-10-30T09:09:39.529Z,63.20
2022-10-30T09:10:39.539Z,61.95
2022-10-30T09:11:39.502Z,61.54
2022-10-30T09:12:39.498Z,61.62
2022-10-30T09:13:39.488Z,63.14
2022-10-30T09:14:39.502Z,62.20
2022-10-30T09:15:39.483Z,62.37
2022-10-30T09:16:39.464Z,61.55
2022-10-30T09:17:39.443Z,62.47
2022-10-30T09:18:39.432Z,63.22
2022-10-30T09:19:39.502Z,63.47
2022-10-30T09:20:39.440Z,62.53
2022-10-30T09:21:39.414Z,61.49
2022-10-30T09:22:39.397Z,62.14
2022-10-30T09:23:39.400Z,63.54
2022-10-30T09:24:39.372Z,62.74
2022-10-30T09:25:39.384Z,62.00
2022-10-30T09:26:39.360Z,61.99
2022-10-30T09:27:39.350Z,63.05
2022-10-30T09:28:39.338Z,61.24
2022-10-30T09:29:39.339Z,62.54
2022-10-30T09:30:39.333Z,63.37
2022-10-30T09:31:39.311Z,61.63
2022-10-30T09:32:39.314Z,61.93
2022-10-30T09:33:39.282Z,61.89
2022-10-30T09:34:39.278Z,61.53
2022-10-30T09:35:39.297Z,60.93
2022-10-30T09:36:39.260Z,61.18
2022-10-30T09:37:39.245Z,60.48
2022-10-30T09:38:39.241Z,61.03
2022-10-30T09:39:39.233Z,59.38
2022-10-30T09:40:39.240Z,62.28
2022-10-30T09:41:39.210Z,61.00
2022-10-30T09:42:39.203Z,61.28
2022-10-30T09:43:39.230Z,60.50
2022-10-30T09:44:39.184Z,61.09
2022-10-30T09:45:39.187Z,59.58
2022-10-30T09:46:39.158Z,60.95
2022-10-30T09:47:39.146Z,61.57
2022-10-30T09:48:39.143Z,59.99
2022-10-30T09:49:39.169Z,59.96
2022-10-30T09:50:39.881Z,60.22
2022-10-30T09:51:39.114Z,60.29
2022-10-30T09:52:39.099Z,60.08
2022-10-30T09:53:39.092Z,59.83
2022-10-30T09:54:39.079Z,59.89
2022-10-30T09:55:39.089Z,60.27
2022-10-30T09:56:39.061Z,60.25
2022-10-30T09:57:39.084Z,59.80
2022-10-30T09:58:39.035Z,60.46
2022-10-30T09:59:39.039Z,59.91
2022-10-30T10:00:39.029Z,60.49
2022-10-30T10:01:39.109Z,59.93
2022-10-30T10:02:39.061Z,60.32
2022-10-30T10:03:39.039Z,60.05
2022-10-30T10:04:38.974Z,59.81
2022-10-30T10:05:38.997Z,60.13
2022-10-30T10:06:38.956Z,60.62
2022-10-30T10:07:38.951Z,61.84
2022-10-30T10:08:38.944Z,61.58
2022-10-30T10:09:38.990Z,59.55
2022-10-30T10:10:38.941Z,60.72
2022-10-30T10:11:38.907Z,59.64
2022-10-30T10:12:38.897Z,59.59
2022-10-30T10:13:38.886Z,61.00
2022-10-30T10:14:38.878Z,60.54
2022-10-30T10:15:38.892Z,60.23
2022-10-30T10:16:38.871Z,60.92
2022-10-30T10:17:38.849Z,60.81
2022-10-30T10:18:38.867Z,59.40
2022-10-30T10:19:38.838Z,60.22
2022-10-30T10:20:38.837Z,60.19
2022-10-30T10:21:38.828Z,60.28
2022-10-30T10:22:38.794Z,59.88
2022-10-30T10:23:38.791Z,59.62
2022-10-30T10:24:38.780Z,59.56
2022-10-30T10:25:38.797Z,59.92
2022-10-30T10:26:38.757Z,60.47
2022-10-30T10:27:38.745Z,60.36
2022-10-30T10:28:38.752Z,59.93
2022-10-30T10:29:38.733Z,59.14
2022-10-30T10:30:38.745Z,59.49
2022-10-30T10:31:38.708Z,59.32
2022-10-30T10:32:38.694Z,59.66
2022-10-30T10:33:38.691Z,59.47
2022-10-30T10:34:38.682Z,59.26
2022-10-30T10:35:38.668Z,60.15
2022-10-30T10:36:38.669Z,59.96
2022-10-30T10:37:38.645Z,59.61
2022-10-30T10:38:38.634Z,61.07
2022-10-30T10:39:38.624Z,59.53
2022-10-30T10:40:38.622Z,60.46
2022-10-30T10:41:38.628Z,59.75
2022-10-30T10:42:38.593Z,60.30
2022-10-30T10:43:38.595Z,59.21
2022-10-30T10:44:38.591Z,60.08
2022-10-30T10:45:38.592Z,59.40
2022-10-30T10:46:38.566Z,59.40
2022-10-30T10:47:38.543Z,59.95
2022-10-30T10:48:38.547Z,59.55
2022-10-30T10:49:40.177Z,61.43
2022-10-30T10:50:38.534Z,58.97
2022-10-30T10:51:38.523Z,59.01
2022-10-30T10:52:38.501Z,60.09
2022-10-30T10:53:38.489Z,59.27
2022-10-30T10:54:38.474Z,58.57
2022-10-30T10:55:38.496Z,58.75
2022-10-30T10:56:38.463Z,59.29
2022-10-30T10:57:38.446Z,59.66
2022-10-30T10:58:38.455Z,60.17
2022-10-30T10:59:38.438Z,58.87
2022-10-30T11:00:38.441Z,59.58
2022-10-30T11:01:38.616Z,59.89
2022-10-30T11:02:38.440Z,59.49
2022-10-30T11:03:38.399Z,59.37
2022-10-30T11:04:38.382Z,59.74
2022-10-30T11:05:38.388Z,59.35
2022-10-30T11:06:38.352Z,59.66
2022-10-30T11:07:38.354Z,59.92
2022-10-30T11:08:38.352Z,59.25
2022-10-30T11:09:38.345Z,58.86
2022-10-30T11:10:38.336Z,59.88
2022-10-30T11:11:38.317Z,59.00
2022-10-30T11:12:38.319Z,58.70
2022-10-30T11:13:38.297Z,59.38
2022-10-30T11:14:38.283Z,59.48
2022-10-30T11:15:38.303Z,59.00
2022-10-30T11:16:38.269Z,59.65
2022-10-30T11:17:38.263Z,59.36
2022-10-30T11:18:38.260Z,58.30
2022-10-30T11:19:38.255Z,59.47
2022-10-30T11:20:38.261Z,59.41
2022-10-30T11:21:38.233Z,58.66
2022-10-30T11:22:38.213Z,58.39
2022-10-30T11:23:38.207Z,59.38
2022-10-30T11:24:38.203Z,59.86
2022-10-30T11:25:38.210Z,58.83
2022-10-30T11:26:38.189Z,60.50
2022-10-30T11:27:38.175Z,58.61
2022-10-30T11:28:38.161Z,59.49
2022-10-30T11:29:38.140Z,59.36
2022-10-30T11:30:38.162Z,60.25
2022-10-30T11:31:38.306Z,59.80
2022-10-30T11:32:38.171Z,59.40
2022-10-30T11:33:38.106Z,58.75
2022-10-30T11:34:38.095Z,59.57
2022-10-30T11:35:38.102Z,60.77
2022-10-30T11:36:38.082Z,59.50
2022-10-30T11:37:38.065Z,58.85
2022-10-30T11:38:38.060Z,59.47
2022-10-30T11:39:38.055Z,58.95
2022-10-30T11:40:38.066Z,59.56
2022-10-30T11:41:38.038Z,59.90
2022-10-30T11:42:38.018Z,60.10
2022-10-30T11:43:38.021Z,58.60
2022-10-30T11:44:38.006Z,60.90
2022-10-30T11:45:37.997Z,60.20
2022-10-30T11:46:37.981Z,59.95
2022-10-30T11:47:37.975Z,59.94
2022-10-30T11:48:37.965Z,60.34
2022-10-30T11:49:37.954Z,59.66
2022-10-30T11:50:37.963Z,59.08
2022-10-30T11:51:38.022Z,59.17
2022-10-30T11:52:37.925Z,59.72
2022-10-30T11:53:37.909Z,60.26
2022-10-30T11:54:37.907Z,61.04
2022-10-30T11:55:37.908Z,61.13
2022-10-30T11:56:37.878Z,63.34
2022-10-30T11:57:37.869Z,60.10
2022-10-30T11:58:37.864Z,59.09
2022-10-30T11:59:37.852Z,60.51
2022-10-30T12:00:38.875Z,60.65
2022-10-30T12:01:37.882Z,61.08
2022-10-30T12:03:38.821Z,59.97
2022-10-30T12:04:37.817Z,61.02
2022-10-30T12:05:37.827Z,60.48
2022-10-30T12:06:41.602Z,59.49
2022-10-30T12:08:10.193Z,59.85
2022-10-30T12:08:37.772Z,60.62
2022-10-30T12:09:37.755Z,59.97
2022-10-30T12:10:37.767Z,59.68
2022-10-30T12:11:37.738Z,61.05
2022-10-30T12:12:37.756Z,59.43
2022-10-30T12:13:37.734Z,59.77
2022-10-30T12:14:37.714Z,59.30
2022-10-30T12:15:37.730Z,60.97
2022-10-30T12:16:37.703Z,59.79
2022-10-30T12:17:37.700Z,58.87
2022-10-30T12:18:37.679Z,58.87
2022-10-30T12:19:37.671Z,59.35
2022-10-30T12:20:37.706Z,59.28
2022-10-30T12:21:37.647Z,59.80
2022-10-30T12:22:37.646Z,60.29
2022-10-30T12:23:37.635Z,58.99
2022-10-30T12:24:37.622Z,60.06
2022-10-30T12:25:37.629Z,59.75
2022-10-30T12:26:37.602Z,60.93
2022-10-30T12:27:37.591Z,59.97
2022-10-30T12:28:37.582Z,60.40
2022-10-30T12:30:02.799Z,60.18
2022-10-30T12:30:39.593Z,60.40
2022-10-30T12:31:37.553Z,60.67
2022-10-30T12:32:39.696Z,60.74
2022-10-30T12:33:38.540Z,60.35
2022-10-30T12:34:37.524Z,60.26
2022-10-30T12:35:37.542Z,59.71
2022-10-30T12:36:37.507Z,60.07
2022-10-30T12:37:37.500Z,59.07
2022-10-30T12:38:37.488Z,59.51
2022-10-30T12:39:37.474Z,59.84
2022-10-30T12:40:37.465Z,59.38
2022-10-30T12:41:37.470Z,60.01
2022-10-30T12:42:37.447Z,61.03
2022-10-30T12:43:37.447Z,59.13
2022-10-30T12:44:37.430Z,60.19
2022-10-30T12:45:37.428Z,58.77
2022-10-30T12:46:37.406Z,59.96
2022-10-30T12:47:37.394Z,59.80
2022-10-30T12:48:37.389Z,59.44
2022-10-30T12:49:37.372Z,59.03
2022-10-30T12:50:37.382Z,59.43
2022-10-30T12:51:37.357Z,59.57
2022-10-30T12:52:37.345Z,59.70
2022-10-30T12:53:37.321Z,60.69
2022-10-30T12:54:37.319Z,58.87